Time;durP1;ratioP1;P1;durP2;ratioP2;P2;SDS_P1;SDS_P2;PMS_P1;PMS_P2;Temp;Humidity;BMP_temperature;BMP_pressure;BME280_temperature;BME280_humidity;BME280_pressure;Samples;Min_cycle;Max_cycle;Signal;HPM_P1;HPM_P2
2022/09/13 00:01:08;;;;;;;12.40;7.73;;;12.20;99.90;;;;;;5069794;28;20603;-71
2022/09/13 00:03:37;;;;;;;8.53;7.37;;;12.10;99.90;;;;;;5072534;28;20224;-70
2022/09/13 00:06:12;;;;;;;7.73;6.80;;;12.10;99.90;;;;;;5072450;28;20255;-69
2022/09/13 00:08:40;;;;;;;9.17;7.80;;;12.10;99.90;;;;;;5072808;28;20197;-71
2022/09/13 00:11:07;;;;;;;13.77;7.87;;;12.10;99.90;;;;;;5069601;28;20217;-70
2022/09/13 00:13:34;;;;;;;8.27;7.30;;;12.10;99.90;;;;;;5068310;28;20206;-71
2022/09/13 00:16:02;;;;;;;10.20;7.93;;;12.10;99.90;;;;;;5070125;28;20205;-70
2022/09/13 00:18:29;;;;;;;9.53;7.43;;;12.10;99.90;;;;;;5071635;28;20212;-71
2022/09/13 00:21:07;;;;;;;8.97;7.80;;;12.10;99.90;;;;;;5071537;28;20613;-70
2022/09/13 00:23:34;;;;;;;11.63;7.80;;;12.10;99.90;;;;;;5072764;28;20604;-69
2022/09/13 00:26:06;;;;;;;9.90;7.90;;;12.00;99.90;;;;;;5071832;28;20257;-69
2022/09/13 00:28:33;;;;;;;11.53;8.27;;;12.00;99.90;;;;;;5071046;28;20209;-69
2022/09/13 00:31:01;;;;;;;10.23;7.83;;;12.10;99.90;;;;;;5071541;28;20208;-69
2022/09/13 00:33:27;;;;;;;12.60;8.23;;;12.00;99.90;;;;;;5071388;28;20271;-69
2022/09/13 00:35:54;;;;;;;9.93;7.63;;;12.00;99.90;;;;;;5071633;28;20219;-70
2022/09/13 00:38:22;;;;;;;12.50;8.03;;;12.00;99.90;;;;;;5070019;28;20584;-70
2022/09/13 00:40:49;;;;;;;9.17;7.37;;;11.90;99.90;;;;;;5067163;28;20221;-70
2022/09/13 00:43:19;;;;;;;10.00;7.70;;;11.90;99.90;;;;;;5062949;28;20201;-70
2022/09/13 00:45:47;;;;;;;11.13;8.70;;;11.90;99.90;;;;;;5064942;28;20702;-71
2022/09/13 00:48:20;;;;;;;10.83;7.97;;;11.90;99.90;;;;;;5070348;28;20228;-70
2022/09/13 00:50:51;;;;;;;9.80;7.30;;;11.80;99.90;;;;;;5068940;28;20774;-71
2022/09/13 00:53:23;;;;;;;9.80;7.57;;;11.80;99.90;;;;;;5070946;28;20205;-70
2022/09/13 00:55:57;;;;;;;10.83;7.67;;;11.80;99.90;;;;;;5068391;28;20205;-70
2022/09/13 00:58:29;;;;;;;8.13;7.33;;;11.70;99.90;;;;;;5060334;28;20201;-71
2022/09/13 01:00:57;;;;;;;9.43;7.43;;;11.70;99.90;;;;;;5060467;28;20606;-69
2022/09/13 01:03:27;;;;;;;9.50;8.00;;;11.70;99.90;;;;;;5063457;28;20334;-70
2022/09/13 01:05:57;;;;;;;12.10;8.70;;;11.60;99.90;;;;;;5070820;28;20228;-71
2022/09/13 01:08:24;;;;;;;9.70;8.27;;;11.60;99.90;;;;;;5063642;28;20201;-70
2022/09/13 01:10:57;;;;;;;9.90;8.40;;;11.60;99.90;;;;;;5051927;28;20626;-71
2022/09/13 01:13:26;;;;;;;8.80;7.83;;;11.60;99.90;;;;;;5071577;28;20213;-71
2022/09/13 01:15:53;;;;;;;9.17;7.57;;;11.60;99.90;;;;;;5067009;28;20212;-69
2022/09/13 01:18:20;;;;;;;9.07;8.03;;;11.60;99.90;;;;;;5070099;28;20676;-70
2022/09/13 01:21:08;;;;;;;8.73;7.47;;;11.60;99.90;;;;;;5071276;28;20622;-71
2022/09/13 01:24:03;;;;;;;8.17;7.37;;;11.60;99.90;;;;;;5069247;28;20229;-72
2022/09/13 01:27:05;;;;;;;10.20;8.23;;;11.60;99.90;;;;;;5068905;28;20618;-71
2022/09/13 01:30:17;;;;;;;10.40;6.97;;;11.50;99.90;;;;;;5060379;28;20196;-71
2022/09/13 01:33:16;;;;;;;9.43;7.73;;;11.50;99.90;;;;;;5034441;28;20861;-71
2022/09/13 01:35:55;;;;;;;10.23;7.70;;;11.50;99.90;;;;;;5066595;28;20202;-70
2022/09/13 01:38:46;;;;;;;8.77;7.50;;;11.50;99.90;;;;;;5067651;28;20212;-70
2022/09/13 01:41:28;;;;;;;9.00;7.70;;;11.50;99.90;;;;;;5058256;28;20205;-71
2022/09/13 01:44:05;;;;;;;8.50;7.60;;;11.50;99.90;;;;;;5070394;28;20229;-70
2022/09/13 01:46:37;;;;;;;8.93;8.03;;;11.50;99.90;;;;;;5069717;28;20579;-71
2022/09/13 01:49:16;;;;;;;9.97;8.13;;;11.50;99.90;;;;;;5069341;28;20212;-70
2022/09/13 01:51:52;;;;;;;10.93;8.70;;;11.50;99.90;;;;;;5068817;28;20204;-69
2022/09/13 01:54:26;;;;;;;10.47;8.53;;;11.40;99.90;;;;;;5065114;28;20201;-71
2022/09/13 01:57:00;;;;;;;10.20;8.50;;;11.40;99.90;;;;;;5070102;28;20579;-71
2022/09/13 01:59:37;;;;;;;9.70;8.70;;;11.40;99.90;;;;;;5070102;28;20202;-70
2022/09/13 02:02:10;;;;;;;10.07;8.57;;;11.40;99.90;;;;;;5070459;28;20205;-70
2022/09/13 02:04:41;;;;;;;11.23;8.47;;;11.40;99.90;;;;;;5070538;28;20205;-72
2022/09/13 02:07:13;;;;;;;10.67;8.97;;;11.40;99.90;;;;;;5070849;28;20396;-71
2022/09/13 02:09:43;;;;;;;10.83;8.73;;;11.40;99.90;;;;;;5068486;28;20664;-71
2022/09/13 02:12:14;;;;;;;11.37;8.60;;;11.50;99.90;;;;;;5071003;28;20338;-71
2022/09/13 02:14:44;;;;;;;13.50;9.40;;;11.40;99.90;;;;;;5068716;28;20204;-71
2022/09/13 02:17:14;;;;;;;11.23;8.50;;;11.40;99.90;;;;;;5069768;28;20650;-71
2022/09/13 02:19:49;;;;;;;8.80;7.90;;;11.40;99.90;;;;;;5069994;28;20240;-69
2022/09/13 02:22:21;;;;;;;11.20;8.27;;;11.40;99.90;;;;;;5069768;28;20227;-70
2022/09/13 02:24:55;;;;;;;11.27;8.80;;;11.30;99.90;;;;;;5056228;28;20623;-70
2022/09/13 02:27:26;;;;;;;14.57;8.83;;;11.30;99.90;;;;;;5064317;28;20247;-71
2022/09/13 02:29:57;;;;;;;11.73;9.47;;;11.30;99.90;;;;;;5062690;28;20623;-70
2022/09/13 02:32:30;;;;;;;10.33;8.90;;;11.30;99.90;;;;;;5069558;28;20208;-70
2022/09/13 02:35:01;;;;;;;11.27;9.30;;;11.30;99.90;;;;;;5070228;28;20658;-70
2022/09/13 02:37:33;;;;;;;12.17;8.60;;;11.30;99.90;;;;;;5070001;28;20271;-71
2022/09/13 02:40:07;;;;;;;11.13;8.50;;;11.30;99.90;;;;;;5070622;28;20688;-71
2022/09/13 02:42:40;;;;;;;12.37;9.13;;;11.30;99.90;;;;;;5069677;28;20212;-71
2022/09/13 02:45:09;;;;;;;12.30;10.20;;;11.30;99.90;;;;;;5070152;28;20236;-71
2022/09/13 02:47:44;;;;;;;15.17;9.87;;;11.30;99.90;;;;;;5063347;28;20651;-71
2022/09/13 02:50:32;;;;;;;12.63;10.20;;;11.20;99.90;;;;;;5070873;28;20205;-73
2022/09/13 02:53:08;;;;;;;11.17;9.40;;;11.20;99.90;;;;;;5070104;28;20205;-71
2022/09/13 02:55:44;;;;;;;11.27;10.00;;;11.20;99.90;;;;;;5069963;28;20193;-72
2022/09/13 02:58:20;;;;;;;11.27;9.53;;;11.20;99.90;;;;;;5059177;28;20243;-71
2022/09/13 03:00:47;;;;;;;12.27;10.03;;;11.20;99.90;;;;;;5073819;28;20197;-71
2022/09/13 03:03:16;;;;;;;11.27;9.10;;;11.20;99.90;;;;;;5074265;28;20213;-72
2022/09/13 03:05:44;;;;;;;12.87;9.53;;;11.20;99.90;;;;;;5060699;28;20229;-72
2022/09/13 03:08:14;;;;;;;14.67;9.57;;;11.20;99.90;;;;;;5072649;28;20785;-70
2022/09/13 03:10:53;;;;;;;13.90;9.40;;;11.20;99.90;;;;;;5073811;28;20213;-70
2022/09/13 03:13:52;;;;;;;14.23;10.83;;;11.20;99.90;;;;;;5056820;28;20208;-69
2022/09/13 03:16:37;;;;;;;11.50;9.17;;;11.20;99.90;;;;;;5071999;28;20201;-70
2022/09/13 03:19:25;;;;;;;12.10;9.20;;;11.10;99.90;;;;;;5073383;28;20232;-71
2022/09/13 03:22:13;;;;;;;10.87;8.60;;;11.10;99.90;;;;;;5073942;28;20340;-71
2022/09/13 03:24:51;;;;;;;9.90;8.33;;;11.10;99.90;;;;;;5074224;28;20614;-71
2022/09/13 03:27:26;;;;;;;9.97;8.97;;;11.10;99.90;;;;;;5071808;28;20220;-71
2022/09/13 03:29:58;;;;;;;13.63;9.23;;;11.00;99.90;;;;;;5073413;28;20665;-71
2022/09/13 03:32:32;;;;;;;11.40;9.50;;;11.00;99.90;;;;;;5070690;28;20197;-70
2022/09/13 03:35:12;;;;;;;11.30;9.73;;;11.00;99.90;;;;;;5072589;28;20206;-70
2022/09/13 03:37:48;;;;;;;10.43;9.07;;;10.90;99.90;;;;;;5072485;28;20204;-71
2022/09/13 03:40:22;;;;;;;9.60;8.47;;;10.90;99.90;;;;;;5073276;28;20201;-70
2022/09/13 03:42:55;;;;;;;13.27;8.40;;;10.90;99.90;;;;;;5071558;28;20211;-71
2022/09/13 03:45:27;;;;;;;9.30;8.00;;;10.90;99.90;;;;;;5073572;28;20217;-72
2022/09/13 03:47:55;;;;;;;11.00;8.13;;;10.90;99.90;;;;;;5069229;28;20216;-69
2022/09/13 03:50:25;;;;;;;13.23;9.03;;;10.80;99.90;;;;;;5073250;28;20762;-70
2022/09/13 03:52:58;;;;;;;9.43;8.30;;;10.80;99.90;;;;;;5072399;28;20255;-70
2022/09/13 03:55:27;;;;;;;11.00;8.83;;;10.80;99.90;;;;;;5072615;28;20798;-71
2022/09/13 03:57:53;;;;;;;11.07;8.53;;;10.80;99.90;;;;;;5071371;28;20209;-70
2022/09/13 04:00:21;;;;;;;10.63;8.40;;;10.70;99.90;;;;;;5072280;28;20213;-69
2022/09/13 04:02:47;;;;;;;12.80;9.17;;;10.70;99.90;;;;;;5072888;28;20567;-70
2022/09/13 04:05:14;;;;;;;10.57;8.73;;;10.70;99.90;;;;;;5071934;28;20212;-70
2022/09/13 04:07:41;;;;;;;9.60;8.60;;;10.70;99.90;;;;;;5072968;28;20236;-71
2022/09/13 04:10:09;;;;;;;11.77;9.40;;;10.70;99.90;;;;;;5071822;28;20677;-70
2022/09/13 04:12:37;;;;;;;11.67;8.80;;;10.70;99.90;;;;;;5072578;28;20208;-71
2022/09/13 04:15:05;;;;;;;11.13;9.23;;;10.70;99.90;;;;;;5067982;28;20209;-71
2022/09/13 04:17:31;;;;;;;13.07;9.83;;;10.60;99.90;;;;;;5071421;28;20205;-70
2022/09/13 04:19:58;;;;;;;11.93;9.67;;;10.60;99.90;;;;;;5072702;28;20569;-70
2022/09/13 04:22:25;;;;;;;10.57;8.47;;;10.70;99.90;;;;;;5070938;28;20221;-70
2022/09/13 04:24:52;;;;;;;11.70;9.43;;;10.60;99.90;;;;;;5071171;28;20518;-69
2022/09/13 04:27:19;;;;;;;11.47;9.50;;;10.60;99.90;;;;;;5066770;28;20237;-70
2022/09/13 04:29:47;;;;;;;12.13;10.83;;;10.70;99.90;;;;;;5064135;28;20232;-70
2022/09/13 04:32:13;;;;;;;11.93;8.80;;;10.70;99.90;;;;;;5072155;28;20209;-70
2022/09/13 04:34:40;;;;;;;11.60;10.00;;;10.70;99.90;;;;;;5071958;28;20201;-71
2022/09/13 04:37:08;;;;;;;12.33;9.57;;;10.70;99.90;;;;;;5070258;28;20213;-70
2022/09/13 04:39:35;;;;;;;11.80;9.30;;;10.70;99.90;;;;;;5072528;28;20202;-70
2022/09/13 04:42:02;;;;;;;12.80;9.20;;;10.80;99.90;;;;;;5072523;28;20634;-71
2022/09/13 04:44:29;;;;;;;12.20;10.10;;;10.80;99.90;;;;;;5072481;28;20232;-71
2022/09/13 04:46:57;;;;;;;13.00;9.70;;;10.80;99.90;;;;;;5068439;28;20220;-70
2022/09/13 04:49:24;;;;;;;12.10;9.80;;;10.80;99.90;;;;;;5070034;28;20688;-74
2022/09/13 04:51:51;;;;;;;11.80;8.63;;;10.80;99.90;;;;;;5072200;28;20218;-72
2022/09/13 04:54:18;;;;;;;12.70;10.13;;;10.90;99.90;;;;;;5070431;28;20303;-71
2022/09/13 04:56:45;;;;;;;10.97;9.17;;;10.90;99.90;;;;;;5069306;28;20205;-72
2022/09/13 04:59:13;;;;;;;11.67;9.50;;;11.00;99.90;;;;;;5070770;28;20346;-71
2022/09/13 05:01:40;;;;;;;11.70;9.80;;;11.00;99.90;;;;;;5070530;28;20212;-72
2022/09/13 05:04:09;;;;;;;12.67;9.63;;;11.10;99.90;;;;;;5071384;28;20216;-71
2022/09/13 05:06:36;;;;;;;18.03;10.43;;;11.10;99.90;;;;;;5070086;28;20253;-71
2022/09/13 05:09:04;;;;;;;13.70;9.67;;;11.10;99.90;;;;;;5062421;28;20848;-71
2022/09/13 05:11:31;;;;;;;13.77;9.77;;;11.10;99.90;;;;;;5071568;28;20804;-71
2022/09/13 05:14:00;;;;;;;13.37;9.50;;;11.20;99.90;;;;;;5064339;28;20206;-70
2022/09/13 05:16:29;;;;;;;13.83;9.70;;;11.20;99.90;;;;;;5061379;28;20220;-70
2022/09/13 05:18:57;;;;;;;13.57;10.47;;;11.30;99.90;;;;;;5069287;28;20665;-71
2022/09/13 05:21:26;;;;;;;12.03;9.40;;;11.30;99.90;;;;;;5066284;28;20205;-70
2022/09/13 05:23:55;;;;;;;15.37;9.67;;;11.30;99.90;;;;;;5069873;28;21853;-70
2022/09/13 05:26:22;;;;;;;12.60;9.30;;;11.40;99.90;;;;;;5066351;28;20231;-71
2022/09/13 05:28:49;;;;;;;16.50;10.17;;;11.40;99.90;;;;;;5070370;28;20209;-71
2022/09/13 05:31:18;;;;;;;13.20;9.93;;;11.50;99.90;;;;;;5070088;28;20575;-71
2022/09/13 05:33:48;;;;;;;13.63;10.07;;;11.60;99.90;;;;;;5068761;28;20210;-71
2022/09/13 05:36:15;;;;;;;13.57;9.60;;;11.60;99.90;;;;;;5061251;28;20205;-71
2022/09/13 05:38:43;;;;;;;16.37;10.27;;;11.70;99.90;;;;;;5065390;28;20621;-73
2022/09/13 05:41:10;;;;;;;12.90;9.90;;;11.80;99.90;;;;;;5066998;28;20211;-71
2022/09/13 05:43:37;;;;;;;13.50;9.67;;;11.90;99.90;;;;;;5069424;28;20237;-72
2022/09/13 05:46:06;;;;;;;16.23;9.83;;;12.00;99.90;;;;;;5069280;28;20232;-73
2022/09/13 05:48:35;;;;;;;17.27;11.60;;;12.10;99.90;;;;;;5067937;28;20623;-71
2022/09/13 05:51:09;;;;;;;15.10;10.30;;;12.10;99.90;;;;;;5067445;28;20267;-73
2022/09/13 05:53:36;;;;;;;17.67;11.90;;;12.30;99.90;;;;;;5062565;28;20308;-73
2022/09/13 05:56:05;;;;;;;16.40;13.80;;;12.40;99.90;;;;;;5065608;28;20588;-72
2022/09/13 05:58:32;;;;;;;17.77;14.80;;;12.40;99.90;;;;;;5067844;28;20627;-72
2022/09/13 06:00:59;;;;;;;18.73;16.50;;;12.60;99.90;;;;;;5070090;28;20208;-72
2022/09/13 06:03:26;;;;;;;18.77;14.97;;;12.70;99.90;;;;;;5069307;28;20205;-72
2022/09/13 06:05:55;;;;;;;18.03;15.37;;;12.80;99.90;;;;;;5070343;28;20585;-73
2022/09/13 06:08:22;;;;;;;16.83;12.47;;;12.90;99.90;;;;;;5060059;28;20232;-73
2022/09/13 06:10:55;;;;;;;15.70;12.10;;;13.00;99.90;;;;;;5055986;28;20205;-71
2022/09/13 06:13:23;;;;;;;15.43;11.47;;;13.10;99.90;;;;;;5054051;28;20233;-71
2022/09/13 06:15:50;;;;;;;19.13;14.03;;;13.10;99.90;;;;;;5056428;28;20245;-71
2022/09/13 06:18:17;;;;;;;21.73;15.20;;;13.20;99.90;;;;;;5054619;28;20714;-72
2022/09/13 06:20:44;;;;;;;20.23;14.07;;;13.20;99.90;;;;;;5064725;28;20210;-71
2022/09/13 06:23:10;;;;;;;12.50;10.73;;;13.30;99.90;;;;;;5063311;28;20233;-71
2022/09/13 06:25:37;;;;;;;9.87;8.87;;;13.30;99.90;;;;;;5060148;28;20244;-69
2022/09/13 06:28:04;;;;;;;11.93;9.17;;;13.40;99.90;;;;;;5056957;28;20236;-72
2022/09/13 06:30:33;;;;;;;10.13;8.57;;;13.40;99.90;;;;;;5064720;28;20225;-71
2022/09/13 06:33:00;;;;;;;9.13;8.23;;;13.40;99.90;;;;;;5061483;28;20616;-72
2022/09/13 06:35:26;;;;;;;9.57;8.00;;;13.60;99.90;;;;;;5068049;28;20209;-72
2022/09/13 06:37:55;;;;;;;10.00;8.83;;;13.60;99.90;;;;;;5059833;28;20206;-73
2022/09/13 06:40:22;;;;;;;10.03;7.97;;;13.70;99.90;;;;;;5066801;28;20658;-72
2022/09/13 06:42:49;;;;;;;12.03;8.97;;;13.80;99.90;;;;;;5053606;28;20205;-72
2022/09/13 06:45:17;;;;;;;8.63;7.77;;;13.80;99.90;;;;;;5059814;28;20259;-69
2022/09/13 06:47:45;;;;;;;11.23;8.37;;;13.80;99.90;;;;;;5060885;28;20221;-70
2022/09/13 06:50:12;;;;;;;13.73;8.70;;;13.90;99.90;;;;;;5054532;28;20549;-71
2022/09/13 06:52:39;;;;;;;8.70;7.80;;;13.90;99.90;;;;;;5058229;28;20328;-70
2022/09/13 06:55:06;;;;;;;13.10;9.07;;;14.00;99.90;;;;;;5063686;28;20216;-70
2022/09/13 06:57:33;;;;;;;15.10;8.17;;;14.00;99.90;;;;;;5064983;28;20209;-71
2022/09/13 07:00:00;;;;;;;13.23;8.77;;;14.00;99.90;;;;;;5068389;28;20219;-72
2022/09/13 07:02:27;;;;;;;10.93;8.80;;;14.10;99.90;;;;;;5069622;28;20214;-71
2022/09/13 07:04:55;;;;;;;12.53;8.90;;;14.20;99.90;;;;;;5064896;28;20205;-70
2022/09/13 07:07:22;;;;;;;11.37;9.57;;;14.20;99.90;;;;;;5054214;28;20245;-74
2022/09/13 07:09:49;;;;;;;13.70;10.17;;;14.30;99.90;;;;;;5053189;28;20201;-75
2022/09/13 07:12:15;;;;;;;10.90;9.07;;;14.40;99.90;;;;;;5066058;28;20209;-69
2022/09/13 07:14:42;;;;;;;11.17;9.17;;;14.60;99.90;;;;;;5062528;28;20703;-69
2022/09/13 07:17:09;;;;;;;9.97;8.83;;;14.70;99.90;;;;;;5068687;28;20687;-72
2022/09/13 07:19:35;;;;;;;10.33;8.87;;;14.80;99.90;;;;;;5067719;28;20209;-72
2022/09/13 07:22:04;;;;;;;11.90;9.33;;;14.90;99.90;;;;;;5066766;28;20239;-77
2022/09/13 07:24:31;;;;;;;11.63;9.00;;;15.10;99.90;;;;;;5062972;28;20210;-70
2022/09/13 07:26:58;;;;;;;10.30;8.87;;;15.20;99.90;;;;;;5054413;28;20233;-72
2022/09/13 07:29:24;;;;;;;11.30;9.13;;;15.30;99.90;;;;;;5065637;28;20205;-71
2022/09/13 07:31:54;;;;;;;10.83;8.80;;;15.50;99.90;;;;;;5061631;28;20238;-72
2022/09/13 07:34:22;;;;;;;12.93;7.97;;;15.50;99.90;;;;;;5058653;28;20283;-71
2022/09/13 07:36:50;;;;;;;10.53;7.37;;;15.70;99.90;;;;;;5052958;28;20209;-70
2022/09/13 07:39:18;;;;;;;11.53;7.90;;;15.90;99.90;;;;;;5055311;28;20309;-71
2022/09/13 07:41:47;;;;;;;9.23;7.27;;;16.00;99.90;;;;;;5051806;28;20224;-70
2022/09/13 07:44:14;;;;;;;8.87;7.17;;;16.10;99.90;;;;;;5057355;28;20765;-71
2022/09/13 07:46:42;;;;;;;6.77;6.00;;;16.30;99.90;;;;;;5059857;28;20284;-70
2022/09/13 07:49:11;;;;;;;7.33;6.40;;;16.50;99.90;;;;;;5062086;28;20581;-71
2022/09/13 07:51:40;;;;;;;6.88;5.60;;;16.60;99.90;;;;;;5059004;28;20224;-70
2022/09/13 07:54:10;;;;;;;7.33;5.60;;;16.80;99.90;;;;;;5058897;28;20566;-70
2022/09/13 07:56:39;;;;;;;5.40;4.80;;;17.00;99.90;;;;;;5059549;28;20221;-70
2022/09/13 07:59:11;;;;;;;7.45;5.10;;;17.20;99.90;;;;;;5061053;28;20454;-70
2022/09/13 08:01:40;;;;;;;7.10;4.88;;;17.40;99.90;;;;;;5059796;28;20198;-67
2022/09/13 08:04:09;;;;;;;6.95;4.60;;;17.50;99.90;;;;;;5055433;28;20209;-70
2022/09/13 08:06:37;;;;;;;9.57;5.38;;;17.70;99.90;;;;;;5056871;28;20230;-68
2022/09/13 08:09:05;;;;;;;15.45;7.22;;;17.80;99.90;;;;;;5056524;28;20220;-68
2022/09/13 08:11:34;;;;;;;9.73;6.45;;;18.00;99.90;;;;;;5056265;28;20201;-67
2022/09/13 08:14:02;;;;;;;5.95;4.47;;;18.20;99.90;;;;;;5057189;28;20213;-70
2022/09/13 08:16:30;;;;;;;7.85;5.32;;;18.30;99.90;;;;;;5055146;28;20201;-68
2022/09/13 08:18:58;;;;;;;24.33;9.35;;;18.40;99.90;;;;;;5058683;28;20216;-68
2022/09/13 08:21:26;;;;;;;13.25;7.20;;;18.50;99.90;;;;;;5060517;28;20198;-73
2022/09/13 08:23:58;;;;;;;6.28;4.05;;;18.70;99.90;;;;;;5061814;28;20216;-68
2022/09/13 08:26:25;;;;;;;7.85;5.43;;;18.80;99.90;;;;;;5056048;28;20555;-71
2022/09/13 08:28:56;;;;;;;20.70;7.28;;;19.10;99.90;;;;;;5059552;28;20238;-72
2022/09/13 08:31:24;;;;;;;8.95;3.70;;;19.20;99.90;;;;;;5052594;28;20210;-70
2022/09/13 08:33:51;;;;;;;5.47;3.78;;;19.40;99.90;;;;;;5055298;28;20570;-70
2022/09/13 08:36:18;;;;;;;9.60;4.50;;;19.50;99.90;;;;;;5061351;28;20205;-70
2022/09/13 08:38:47;;;;;;;4.60;3.63;;;19.60;99.90;;;;;;5061378;28;20202;-70
2022/09/13 08:41:52;;;;;;;8.98;4.50;;;19.70;99.90;;;;;;5063173;28;20205;-70
2022/09/13 08:44:27;;;;;;;10.88;4.07;;;20.00;99.90;;;;;;5049836;28;20578;-70
2022/09/13 08:46:59;;;;;;;8.45;4.15;;;20.20;99.90;;;;;;5060762;28;20205;-70
2022/09/13 08:49:30;;;;;;;7.78;3.30;;;20.50;99.90;;;;;;5058009;28;20204;-70
2022/09/13 08:52:00;;;;;;;7.72;3.67;;;20.80;99.90;;;;;;5064764;28;20206;-69
2022/09/13 08:54:27;;;;;;;3.45;2.90;;;21.10;99.90;;;;;;5060182;28;20197;-69
2022/09/13 08:57:01;;;;;;;4.53;2.78;;;21.40;99.90;;;;;;5065462;28;20658;-69
2022/09/13 08:59:39;;;;;;;3.20;2.10;;;21.60;99.30;;;;;;5063444;28;21406;-70
2022/09/13 09:02:18;;;;;;;3.45;2.38;;;21.80;97.70;;;;;;5064912;28;20208;-71
2022/09/13 09:04:51;;;;;;;6.85;2.95;;;21.90;96.80;;;;;;5063290;28;20706;-70
2022/09/13 09:07:21;;;;;;;4.57;2.00;;;22.20;96.50;;;;;;5059370;28;20614;-70
2022/09/13 09:09:52;;;;;;;4.45;1.95;;;22.50;95.20;;;;;;5060761;28;20295;-70
2022/09/13 09:12:27;;;;;;;4.90;2.28;;;23.00;94.30;;;;;;5063793;28;20603;-72
2022/09/13 09:15:03;;;;;;;2.38;2.05;;;23.50;92.40;;;;;;5070141;28;20217;-69
2022/09/13 09:17:40;;;;;;;4.55;2.15;;;24.10;90.20;;;;;;5065646;28;21130;-71
2022/09/13 09:20:16;;;;;;;3.58;2.08;;;24.80;85.10;;;;;;5055114;28;20212;-71
2022/09/13 09:22:44;;;;;;;2.15;1.95;;;25.30;81.60;;;;;;5054841;28;20229;-69
2022/09/13 09:25:12;;;;;;;4.40;2.25;;;25.50;78.90;;;;;;5067591;28;20212;-70
2022/09/13 09:27:39;;;;;;;2.78;1.98;;;25.60;75.40;;;;;;5066709;28;20233;-70
2022/09/13 09:30:13;;;;;;;5.00;2.15;;;25.70;75.40;;;;;;5063908;28;20209;-74
2022/09/13 09:33:06;;;;;;;2.70;1.65;;;25.80;73.80;;;;;;5062700;28;20221;-73
2022/09/13 09:35:51;;;;;;;4.20;1.65;;;26.10;72.20;;;;;;5066432;28;20204;-73
2022/09/13 09:38:40;;;;;;;3.83;2.00;;;26.20;71.00;;;;;;5058308;28;20646;-72
2022/09/13 09:41:15;;;;;;;2.22;1.80;;;26.50;70.70;;;;;;5061851;28;20212;-77
2022/09/13 09:43:47;;;;;;;3.38;1.63;;;27.60;67.20;;;;;;5068089;28;20193;-71
2022/09/13 09:46:16;;;;;;;5.53;1.70;;;28.00;62.80;;;;;;5059778;28;20193;-71
2022/09/13 09:48:52;;;;;;;1.70;1.40;;;27.50;62.40;;;;;;5059851;28;20221;-71
2022/09/13 09:51:21;;;;;;;2.05;1.50;;;26.90;63.60;;;;;;5061016;28;20228;-71
2022/09/13 09:53:50;;;;;;;5.38;2.20;;;26.50;64.80;;;;;;5059173;28;20210;-71
2022/09/13 09:56:23;;;;;;;2.80;1.75;;;26.30;65.80;;;;;;5069444;28;20198;-71
2022/09/13 09:58:51;;;;;;;3.33;1.40;;;26.40;66.90;;;;;;5070583;28;20216;-75
2022/09/13 10:01:24;;;;;;;3.22;1.70;;;26.70;66.50;;;;;;5062771;28;20206;-73
2022/09/13 10:04:04;;;;;;;1.83;1.50;;;27.40;64.40;;;;;;5054330;28;20210;-71
2022/09/13 10:06:32;;;;;;;2.33;1.85;;;28.30;62.10;;;;;;5058362;28;21067;-76
2022/09/13 10:09:01;;;;;;;6.10;1.80;;;28.90;59.40;;;;;;5067569;28;20217;-76
2022/09/13 10:11:46;;;;;;;2.63;1.60;;;29.10;58.60;;;;;;5064500;28;20201;-75
2022/09/13 10:14:34;;;;;;;2.15;1.58;;;29.50;58.20;;;;;;5070726;28;20205;-77
2022/09/13 10:17:14;;;;;;;2.63;1.40;;;29.60;55.80;;;;;;5065741;28;20202;-76
2022/09/13 10:19:53;;;;;;;4.75;1.40;;;28.80;55.70;;;;;;5071361;28;20205;-75
2022/09/13 10:22:20;;;;;;;2.03;1.30;;;27.60;57.10;;;;;;5070925;28;20315;-76
2022/09/13 10:24:47;;;;;;;1.70;1.33;;;26.60;58.40;;;;;;5071386;28;20209;-76
2022/09/13 10:27:24;;;;;;;2.03;1.52;;;25.80;60.30;;;;;;5069568;28;20591;-75
2022/09/13 10:29:55;;;;;;;5.22;1.75;;;25.10;62.70;;;;;;5058339;28;20230;-75
2022/09/13 10:32:22;;;;;;;2.72;1.50;;;24.70;64.00;;;;;;5061821;28;20204;-76
2022/09/13 10:34:51;;;;;;;1.88;1.42;;;24.40;65.20;;;;;;5069744;28;20220;-76
2022/09/13 10:37:22;;;;;;;1.65;1.55;;;24.10;65.80;;;;;;5062592;28;20214;-75
2022/09/13 10:39:57;;;;;;;2.80;1.90;;;23.90;66.60;;;;;;5070491;28;20547;-76
2022/09/13 10:42:26;;;;;;;4.47;1.77;;;23.80;67.40;;;;;;5068349;28;20211;-76
2022/09/13 10:44:55;;;;;;;1.73;1.25;;;23.60;67.10;;;;;;5067911;28;20236;-76
2022/09/13 10:47:24;;;;;;;3.17;1.48;;;23.40;67.80;;;;;;5064924;28;20205;-75
2022/09/13 10:49:54;;;;;;;2.28;1.63;;;23.30;68.60;;;;;;5060027;28;20212;-75
2022/09/13 10:52:33;;;;;;;1.42;1.33;;;23.40;69.30;;;;;;5064780;28;20847;-76
2022/09/13 10:55:41;;;;;;;2.85;2.08;;;23.60;68.90;;;;;;5065989;28;20622;-76
2022/09/13 10:58:20;;;;;;;1.98;1.25;;;24.00;68.60;;;;;;5069993;28;20201;-78
2022/09/13 11:01:17;;;;;;;1.70;1.17;;;24.40;68.20;;;;;;5064781;28;20220;-75
2022/09/13 11:04:30;;;;;;;2.83;1.75;;;24.50;66.90;;;;;;5061869;28;20206;-77
2022/09/13 11:07:11;;;;;;;2.88;1.60;;;24.30;66.80;;;;;;5060009;28;20244;-77
2022/09/13 11:09:45;;;;;;;2.78;1.60;;;24.10;67.10;;;;;;5070323;28;20579;-77
2022/09/13 11:12:19;;;;;;;2.10;1.33;;;24.10;67.90;;;;;;5069294;28;20304;-77
2022/09/13 11:15:01;;;;;;;2.08;1.50;;;24.20;67.90;;;;;;5059683;28;20201;-75
2022/09/13 11:17:46;;;;;;;1.40;1.30;;;24.20;67.80;;;;;;5064815;28;20209;-76
2022/09/13 11:20:26;;;;;;;2.42;1.60;;;24.20;68.40;;;;;;5070795;28;20205;-75
2022/09/13 11:23:23;;;;;;;3.47;1.25;;;24.30;68.60;;;;;;5072868;28;20344;-75
2022/09/13 11:26:20;;;;;;;3.60;1.50;;;24.40;67.90;;;;;;5070344;28;20601;-76
2022/09/13 11:28:56;;;;;;;4.80;1.35;;;24.20;67.90;;;;;;5071775;28;20221;-76
2022/09/13 11:31:35;;;;;;;2.70;1.63;;;24.10;68.50;;;;;;5072355;28;20204;-77
2022/09/13 11:34:19;;;;;;;2.88;1.30;;;23.90;68.60;;;;;;5072890;28;20212;-75
2022/09/13 11:36:56;;;;;;;1.70;1.55;;;23.60;69.10;;;;;;5072709;28;20240;-74
2022/09/13 11:39:31;;;;;;;5.55;1.63;;;23.40;70.00;;;;;;5066849;28;20197;-75
2022/09/13 11:42:07;;;;;;;4.05;1.60;;;23.40;70.60;;;;;;5063352;28;20193;-75
2022/09/13 11:45:19;;;;;;;1.63;1.45;;;23.50;71.80;;;;;;5071200;28;20212;-76
2022/09/13 11:47:59;;;;;;;1.75;1.65;;;23.80;71.00;;;;;;5071696;28;20209;-75
2022/09/13 11:50:36;;;;;;;2.40;1.70;;;24.00;70.60;;;;;;5073497;28;20204;-76
2022/09/13 11:53:29;;;;;;;3.83;1.80;;;24.00;70.20;;;;;;5073665;28;20636;-76
2022/09/13 11:56:01;;;;;;;3.30;1.70;;;24.00;70.10;;;;;;5072934;28;20216;-75
2022/09/13 11:58:33;;;;;;;2.05;1.70;;;23.70;70.30;;;;;;5073239;28;20255;-74
2022/09/13 12:01:04;;;;;;;3.67;1.95;;;23.40;71.40;;;;;;5067882;28;20548;-77
2022/09/13 12:03:38;;;;;;;3.20;2.22;;;23.10;71.90;;;;;;5060056;28;20574;-75
2022/09/13 12:06:11;;;;;;;2.33;2.00;;;23.00;72.80;;;;;;5069471;28;20211;-76
2022/09/13 12:08:43;;;;;;;2.10;1.88;;;22.90;73.70;;;;;;5068559;28;20735;-76
2022/09/13 12:11:16;;;;;;;2.90;1.88;;;22.90;74.70;;;;;;5071180;28;20205;-74
2022/09/13 12:13:48;;;;;;;4.82;2.20;;;23.00;74.30;;;;;;5069113;28;20220;-75
2022/09/13 12:16:23;;;;;;;4.80;2.22;;;23.20;74.50;;;;;;5067908;28;20551;-74
2022/09/13 12:18:54;;;;;;;4.07;2.00;;;23.10;74.70;;;;;;5070639;28;20181;-75
2022/09/13 12:21:24;;;;;;;4.28;1.88;;;23.10;74.90;;;;;;5069813;28;20197;-75
2022/09/13 12:23:57;;;;;;;2.15;1.92;;;23.00;75.20;;;;;;5056954;28;20218;-77
2022/09/13 12:26:30;;;;;;;3.55;2.25;;;22.80;75.50;;;;;;5073238;28;20208;-74
2022/09/13 12:29:02;;;;;;;3.63;2.20;;;22.70;76.10;;;;;;5057747;28;20217;-74
2022/09/13 12:31:31;;;;;;;2.10;1.98;;;22.40;76.80;;;;;;5064257;28;20680;-75
2022/09/13 12:34:00;;;;;;;2.70;2.28;;;22.10;77.30;;;;;;5070076;28;20201;-73
2022/09/13 12:36:53;;;;;;;4.63;3.30;;;21.90;78.60;;;;;;5063419;28;20226;-72
2022/09/13 12:39:42;;;;;;;4.93;2.70;;;21.50;79.90;;;;;;5057825;28;20685;-72
2022/09/13 12:42:45;;;;;;;2.83;2.35;;;21.30;81.50;;;;;;5071302;28;20201;-73
2022/09/13 12:45:38;;;;;;;3.58;2.28;;;21.10;82.50;;;;;;5065589;28;20205;-71
2022/09/13 12:48:19;;;;;;;3.83;2.88;;;20.90;83.70;;;;;;5063539;28;20220;-73
2022/09/13 12:50:57;;;;;;;2.58;2.28;;;20.70;84.60;;;;;;5068522;28;20198;-72
2022/09/13 12:53:58;;;;;;;3.38;2.90;;;20.50;85.60;;;;;;5055265;28;20201;-73
2022/09/13 12:56:50;;;;;;;2.80;2.60;;;20.40;86.90;;;;;;5058756;28;20307;-74
2022/09/13 12:59:50;;;;;;;2.90;2.67;;;20.30;87.70;;;;;;5056702;28;20201;-74
2022/09/13 13:02:28;;;;;;;14.35;4.45;;;20.30;88.80;;;;;;5064634;28;20202;-75
2022/09/13 13:04:59;;;;;;;2.97;2.38;;;20.20;89.30;;;;;;5064399;28;20682;-72
2022/09/13 13:07:28;;;;;;;4.20;2.75;;;20.20;89.90;;;;;;5067273;28;20248;-74
2022/09/13 13:09:56;;;;;;;3.20;2.90;;;20.10;90.20;;;;;;5068782;28;20225;-74